Belize, Belize

5:47 PM CST on July 27, 2016 (GMT -0600)
Philip S W Goldson International | | Change Station

Elev 16 ft 17.54 °N, 88.31 °W | Updated 47 minutes ago

Scattered Clouds
Scattered Clouds
88 °F
Feels Like 102 °F
N
10
Wind Variable Wind from East

Today
High -- | Low -- °F
--% Chance of Precip.
Yesterday
High -- | Low -- °F
Precip. -- in
Pressure 29.90 in
Visibility 6.2 miles
Clouds Scattered Clouds 2300 ft
Heat Index 102 °F
Dew Point 79 °F
Humidity 75%
Rainfall 0.00 in
Snow Depth Not available.
5:30 AM 6:28 PM
Last Quarter, 38% visible
METAR MZBZ 272300Z 08009KT 9999 SCT023 31/26 A2990 Q1012 NOSIG
Pressure 29.90 in
Visibility 6.2 miles
Clouds Scattered Clouds 2300 ft
Heat Index 102 °F
Dew Point 79 °F
Humidity 75%
Rainfall 0.00 in
Snow Depth Not available.
5:30 AM 6:28 PM
Last Quarter, 38% visible
METAR MZBZ 272300Z 08009KT 9999 SCT023 31/26 A2990 Q1012 NOSIG

10-Day Weather Forecast

No radar image for this location.
×

Almanac

Astronomy

Jul. 27, 2016 Rise Set
Actual Time
Civil Twilight
Nautical Twilight
Astronomical Twilight
Moon
Length of Visible Light
Length of Day
Tomorrow will be .
, % of the Moon is Illuminated

Today's Extremes

Country Highs Country Lows

Community

WunderPhotos

Upload Photos

1,927,958 photos uploaded!

WunderBlog® & News

Nearby

Air Quality

  Air Quality AQ Index Pollutant
Not available.

Snow Depth

Station Depth Elevation

Earthquake Activity

City Distance Mag. Time & Date
Minimum magnitude displayed is 2.5.

Coastal Water Temperatures

Place Temperature

Stations

Nearby Weather Stations

Station Location Temp. Windchill Dew Point Humidity Wind Precip. Elev Updated Type